Garden Plain, Illinois
Current Conditions -  °F | °C
As of 7:55 AM on Monday 20 Oct 2014 (Local Time) from KCWI Reporting Station
Clear Clear  
Wind Chill: 42°   Ceiling: Unl
Heat Index: 46°   Visibility: 10mi
Dew Point: 41°   Wind: 8mph
Humidity: 81%   Direction: 310°NW
Pressure: 29.91"   Gusts: NA
Location:  41.8428°N, 90.1189°W
Report Text: KCWI 201255Z AUTO 31007KT 10SM CLR 08/05 A2991 RMK AO1
Loading
Personal Weather Stations






























Interactive Weather Map
Tropical Storm Tracking
New forecast layout! Learn more

10-Day Weather Forecast

Advertisements
Track Severe Weather on mobile